Time;durP1;ratioP1;P1;durP2;ratioP2;P2;SDS_P1;SDS_P2;PMS_P1;PMS_P2;Temp;Humidity;BMP_temperature;BMP_pressure;BME280_temperature;BME280_humidity;BME280_pressure;Samples;Min_cycle;Max_cycle;Signal;HPM_P1;HPM_P2
2023/01/30 00:03:36;;;;;;;20.15;5.10;;;8.70;99.90;;;;;;10494867;28;20063;-25
2023/01/30 00:08:40;;;;;;;13.98;5.75;;;8.60;99.90;;;;;;10492822;28;20412;-26
2023/01/30 00:13:42;;;;;;;16.10;4.70;;;8.70;99.90;;;;;;10505355;28;20574;-25
2023/01/30 00:18:44;;;;;;;14.27;4.85;;;8.30;99.90;;;;;;10511727;28;20044;-25
2023/01/30 00:23:48;;;;;;;21.58;5.05;;;8.50;99.90;;;;;;10496935;28;20048;-25
2023/01/30 00:28:49;;;;;;;;;;;8.40;99.90;;;;;;10494866;28;20098;-26
2023/01/30 00:33:51;;;;;;;33.80;6.38;;;8.60;99.90;;;;;;10489593;28;19924;-25
2023/01/30 00:38:56;;;;;;;22.38;6.47;;;8.40;99.90;;;;;;10506385;28;20131;-25
2023/01/30 00:49:18;;;;;;;19.75;5.10;;;8.30;99.90;;;;;;10486378;28;20060;-26
2023/01/30 00:54:21;;;;;;;16.27;4.85;;;8.70;99.90;;;;;;10494272;28;20052;-26
2023/01/30 00:59:22;;;;;;;;;;;8.30;99.90;;;;;;10496496;28;20043;-25
2023/01/30 01:04:24;;;;;;;13.13;3.72;;;8.40;99.90;;;;;;10498965;28;20035;-27
2023/01/30 01:09:28;;;;;;;13.52;3.53;;;8.50;99.90;;;;;;10494206;28;20516;-25
2023/01/30 01:14:29;;;;;;;;;;;8.60;99.90;;;;;;10497834;28;20052;-25
2023/01/30 01:19:31;;;;;;;19.50;4.60;;;8.60;99.90;;;;;;10491729;28;19955;-25
2023/01/30 01:24:34;;;;;;;19.85;3.45;;;8.30;99.90;;;;;;10493839;28;20156;-25
2023/01/30 01:29:36;;;;;;;11.13;2.70;;;8.30;99.90;;;;;;10490376;28;20155;-26
2023/01/30 01:34:38;;;;;;;16.25;4.03;;;8.60;99.90;;;;;;10501253;28;20047;-25
2023/01/30 01:45:10;;;;;;;12.25;2.60;;;8.50;99.90;;;;;;10490750;28;20048;-24
2023/01/30 01:50:15;;;;;;;20.80;3.58;;;8.30;99.90;;;;;;10490631;28;20045;-26
2023/01/30 01:55:20;;;;;;;19.88;3.60;;;8.40;99.90;;;;;;10497801;28;20107;-24
2023/01/30 02:00:23;;;;;;;24.08;3.97;;;8.30;99.90;;;;;;10490682;28;20052;-25
2023/01/30 02:05:27;;;;;;;16.85;3.38;;;8.20;99.90;;;;;;10485078;28;20040;-25
2023/01/30 02:10:39;;;;;;;12.15;3.15;;;8.30;99.90;;;;;;10488442;28;20074;-25
2023/01/30 02:15:41;;;;;;;15.77;4.30;;;8.40;99.90;;;;;;10487127;28;20048;-25
2023/01/30 02:21:03;;;;;;;32.90;4.87;;;8.50;99.90;;;;;;10489252;28;20135;-25
2023/01/30 02:26:41;;;;;;;24.17;3.72;;;8.60;99.90;;;;;;10494964;28;20083;-24
2023/01/30 02:31:50;;;;;;;16.77;3.10;;;8.50;99.90;;;;;;10473038;28;20461;-25
2023/01/30 02:37:01;;;;;;;19.98;3.67;;;8.40;99.90;;;;;;10487391;28;20136;-26
2023/01/30 02:42:10;;;;;;;12.63;3.65;;;8.50;99.90;;;;;;10485187;28;20048;-25
2023/01/30 02:47:17;;;;;;;19.95;4.20;;;8.40;99.90;;;;;;10485484;28;20099;-26
2023/01/30 02:52:21;;;;;;;18.70;3.70;;;8.60;99.90;;;;;;10489687;28;20117;-25
2023/01/30 02:57:25;;;;;;;12.20;3.15;;;8.60;99.90;;;;;;10501481;28;20147;-24
2023/01/30 03:03:06;;;;;;;15.57;3.47;;;8.90;99.90;;;;;;10496097;28;20045;-25
2023/01/30 03:08:19;;;;;;;30.63;3.72;;;8.80;99.90;;;;;;10487272;28;20131;-25
2023/01/30 03:13:29;;;;;;;25.98;4.95;;;8.50;99.90;;;;;;10484871;28;20071;-25
2023/01/30 03:18:31;;;;;;;25.15;4.10;;;8.60;99.90;;;;;;10482692;28;20083;-25
2023/01/30 03:23:34;;;;;;;23.08;4.97;;;8.80;99.90;;;;;;10498894;28;20109;-25
2023/01/30 03:28:37;;;;;;;15.65;3.53;;;8.50;99.90;;;;;;10504949;28;20045;-23
2023/01/30 03:33:39;;;;;;;22.42;3.88;;;8.70;99.90;;;;;;10498020;28;20075;-25
2023/01/30 03:38:42;;;;;;;19.20;4.20;;;8.40;99.90;;;;;;10496387;28;20052;-23
2023/01/30 03:43:44;;;;;;;15.02;3.28;;;8.20;99.90;;;;;;10508209;28;20044;-24
2023/01/30 03:48:46;;;;;;;24.13;5.00;;;8.50;99.90;;;;;;10504467;28;20047;-24
2023/01/30 03:53:49;;;;;;;17.02;3.30;;;8.80;99.90;;;;;;10496168;28;20068;-24
2023/01/30 03:58:50;;;;;;;;;;;8.50;99.90;;;;;;10503574;28;20088;-24
2023/01/30 04:03:52;;;;;;;19.77;3.83;;;8.50;99.90;;;;;;10497055;28;19989;-23
2023/01/30 04:08:55;;;;;;;14.95;4.10;;;8.70;99.90;;;;;;10494282;28;20101;-25
2023/01/30 04:13:57;;;;;;;16.02;2.53;;;8.80;99.90;;;;;;10495842;28;20064;-25
2023/01/30 04:18:59;;;;;;;20.70;3.75;;;8.90;99.90;;;;;;10497612;28;20475;-24
2023/01/30 04:24:03;;;;;;;12.80;2.50;;;8.60;99.90;;;;;;10499657;28;20515;-24
2023/01/30 04:29:05;;;;;;;14.70;2.90;;;8.60;99.90;;;;;;10497691;28;20047;-24
2023/01/30 04:34:07;;;;;;;10.18;2.72;;;8.70;99.90;;;;;;10494389;28;20106;-25
2023/01/30 04:39:10;;;;;;;14.02;2.55;;;8.50;99.90;;;;;;10492965;28;20084;-25
2023/01/30 04:44:11;;;;;;;;;;;9.00;99.90;;;;;;10497116;28;20045;-24
2023/01/30 04:49:13;;;;;;;17.33;2.33;;;8.60;99.90;;;;;;10491350;28;20011;-24
2023/01/30 04:54:17;;;;;;;15.68;3.00;;;9.00;99.90;;;;;;10492201;28;20105;-26
2023/01/30 04:59:18;;;;;;;;;;;8.70;99.90;;;;;;10500449;28;20452;-24
2023/01/30 05:04:20;;;;;;;10.45;2.38;;;9.10;99.90;;;;;;10496763;28;19943;-24
2023/01/30 05:09:23;;;;;;;10.50;2.38;;;8.90;99.90;;;;;;10494370;28;20135;-25
2023/01/30 05:14:25;;;;;;;;;;;9.00;99.90;;;;;;10500135;28;20080;-25
2023/01/30 05:19:27;;;;;;;14.13;3.10;;;9.10;99.90;;;;;;10491206;28;20011;-25
2023/01/30 05:24:30;;;;;;;23.95;3.33;;;8.70;99.90;;;;;;10501403;28;20122;-25
2023/01/30 05:29:31;;;;;;;;;;;8.60;99.90;;;;;;10491886;28;20076;-25
2023/01/30 05:34:33;;;;;;;23.38;3.70;;;8.50;99.90;;;;;;10501356;28;20014;-25
2023/01/30 05:39:37;;;;;;;20.85;3.35;;;8.60;99.90;;;;;;10491670;28;20064;-24
2023/01/30 05:44:39;;;;;;;20.35;3.40;;;8.10;99.90;;;;;;10492076;28;20143;-25
2023/01/30 05:49:41;;;;;;;29.70;3.33;;;7.80;99.90;;;;;;10489520;28;20110;-25
2023/01/30 05:54:44;;;;;;;15.60;4.10;;;7.70;99.90;;;;;;10501361;28;20080;-25
2023/01/30 05:59:46;;;;;;;30.48;4.38;;;7.70;99.90;;;;;;10490136;28;20090;-26
2023/01/30 06:04:47;;;;;;;26.15;4.25;;;7.60;99.90;;;;;;10484826;28;20127;-26
2023/01/30 06:09:51;;;;;;;20.65;4.38;;;7.60;99.90;;;;;;10488007;28;20093;-28
2023/01/30 06:14:52;;;;;;;;;;;7.60;99.90;;;;;;10492304;28;20505;-25
2023/01/30 06:19:54;;;;;;;29.80;4.28;;;7.60;99.90;;;;;;10483524;28;19960;-25
2023/01/30 06:24:57;;;;;;;24.15;2.72;;;8.10;99.90;;;;;;10484038;28;20682;-25
2023/01/30 06:29:59;;;;;;;;;;;8.10;99.90;;;;;;10476351;28;20461;-27
2023/01/30 06:35:01;;;;;;;28.67;3.30;;;7.80;99.90;;;;;;10490113;28;19959;-25
2023/01/30 06:40:05;;;;;;;28.42;4.88;;;7.60;99.90;;;;;;10479190;28;20548;-24
2023/01/30 06:45:08;;;;;;;22.08;2.75;;;7.60;99.90;;;;;;10486745;28;20138;-25
2023/01/30 06:50:10;;;;;;;;;;;7.60;99.90;;;;;;10488425;28;20048;-24
2023/01/30 06:55:15;;;;;;;27.50;3.35;;;7.70;99.90;;;;;;10487061;28;20014;-24
2023/01/30 07:00:18;;;;;;;28.27;4.57;;;7.40;99.90;;;;;;10486693;28;20044;-24
2023/01/30 07:14:40;;;;;;;24.17;2.53;;;7.40;99.90;;;;;;10512100;27;20114;-26
2023/01/30 07:19:42;;;;;;;;;;;7.80;99.90;;;;;;10510556;28;20432;-25
2023/01/30 07:24:43;;;;;;;27.55;3.53;;;7.90;99.90;;;;;;10521709;28;20367;-25
2023/01/30 07:29:47;;;;;;;29.10;3.63;;;7.60;99.90;;;;;;10524029;28;20182;-25
2023/01/30 07:34:48;;;;;;;;;;;7.50;99.90;;;;;;10517495;28;20068;-24
2023/01/30 07:39:50;;;;;;;26.23;2.97;;;7.60;99.90;;;;;;10515825;28;20003;-26
2023/01/30 07:44:53;;;;;;;22.10;3.67;;;7.80;99.90;;;;;;10509336;28;20080;-27
2023/01/30 07:49:55;;;;;;;23.67;3.08;;;7.30;99.90;;;;;;10514791;28;20110;-24
2023/01/30 07:54:57;;;;;;;32.28;3.97;;;8.10;99.90;;;;;;10515245;28;20150;-25
2023/01/30 08:00:00;;;;;;;19.42;2.78;;;7.90;99.90;;;;;;10510132;28;20076;-25
2023/01/30 08:05:02;;;;;;;20.38;2.92;;;7.70;99.90;;;;;;10526280;28;20205;-25
2023/01/30 08:10:05;;;;;;;20.65;3.05;;;7.70;99.90;;;;;;10515184;28;21943;-24
2023/01/30 08:15:09;;;;;;;35.35;3.40;;;8.10;99.90;;;;;;10510625;28;20071;-27
2023/01/30 08:20:15;;;;;;;17.83;3.50;;;7.70;99.90;;;;;;10509165;28;20099;-25
2023/01/30 08:25:17;;;;;;;24.23;3.50;;;7.70;99.90;;;;;;10485950;28;20484;-28
2023/01/30 08:30:22;;;;;;;26.27;3.93;;;7.90;99.90;;;;;;10491263;28;20060;-24
2023/01/30 08:35:24;;;;;;;36.83;4.95;;;7.90;99.90;;;;;;10486870;28;20072;-25
2023/01/30 08:40:26;;;;;;;34.08;4.35;;;7.70;99.90;;;;;;10498460;28;20469;-25
2023/01/30 08:45:29;;;;;;;20.17;3.47;;;8.00;99.90;;;;;;10484295;28;20555;-27
2023/01/30 08:50:32;;;;;;;35.72;6.03;;;7.80;99.90;;;;;;10470537;28;20077;-24
2023/01/30 08:55:34;;;;;;;17.75;4.10;;;7.80;99.90;;;;;;10482425;28;20437;-24
2023/01/30 09:00:39;;;;;;;22.50;2.77;;;8.00;99.90;;;;;;10480295;28;20044;-26
2023/01/30 09:05:41;;;;;;;22.48;3.10;;;8.10;99.90;;;;;;10479105;28;20558;-25
2023/01/30 09:10:43;;;;;;;26.40;3.60;;;8.20;99.90;;;;;;10484222;28;20156;-26
2023/01/30 09:15:46;;;;;;;17.55;3.17;;;7.90;99.90;;;;;;10487391;28;20444;-24
2023/01/30 09:20:48;;;;;;;;;;;8.00;99.90;;;;;;10477841;28;20412;-25
2023/01/30 09:25:49;;;;;;;24.20;4.22;;;8.10;99.90;;;;;;10493973;28;19924;-25
2023/01/30 09:30:53;;;;;;;32.65;4.05;;;8.00;99.90;;;;;;10476924;28;20095;-25
2023/01/30 09:35:56;;;;;;;16.48;2.38;;;8.20;99.90;;;;;;10478074;28;20137;-25
2023/01/30 09:41:11;;;;;;;31.75;3.47;;;8.20;99.90;;;;;;10486467;28;20577;-25
2023/01/30 09:46:24;;;;;;;23.52;2.83;;;8.10;99.90;;;;;;10485540;28;20044;-24
2023/01/30 09:51:39;;;;;;;19.60;4.43;;;7.90;99.90;;;;;;10487739;28;20138;-25
2023/01/30 09:56:42;;;;;;;20.55;5.05;;;8.00;99.90;;;;;;10486835;28;20052;-26
2023/01/30 10:01:53;;;;;;;21.87;3.00;;;8.20;99.90;;;;;;10472938;28;20102;-23
2023/01/30 10:07:06;;;;;;;15.23;3.08;;;8.40;99.90;;;;;;10481882;28;20553;-25
2023/01/30 10:12:23;;;;;;;32.27;3.83;;;8.30;99.90;;;;;;10480015;28;20052;-25
2023/01/30 10:17:41;;;;;;;17.95;2.53;;;8.50;99.90;;;;;;10486399;28;20490;-24
2023/01/30 10:22:55;;;;;;;25.02;3.03;;;8.80;99.90;;;;;;10488475;28;20420;-24
2023/01/30 10:28:01;;;;;;;20.10;3.35;;;8.50;99.90;;;;;;10482679;28;20176;-26
2023/01/30 10:33:09;;;;;;;39.88;3.45;;;8.40;99.90;;;;;;10471016;28;20667;-25
2023/01/30 10:38:18;;;;;;;21.20;3.05;;;8.20;99.90;;;;;;10480916;28;20094;-25
2023/01/30 10:43:26;;;;;;;21.08;3.50;;;8.60;99.90;;;;;;10465931;28;20053;-24
2023/01/30 10:48:54;;;;;;;23.90;3.03;;;8.30;99.90;;;;;;10480843;28;20047;-24
2023/01/30 10:54:00;;;;;;;35.25;4.53;;;8.50;99.90;;;;;;10475983;28;20056;-26
2023/01/30 10:59:15;;;;;;;28.45;3.83;;;8.30;99.90;;;;;;10481541;28;20447;-25
2023/01/30 11:04:25;;;;;;;19.23;2.95;;;8.40;99.90;;;;;;10485024;28;20064;-24
2023/01/30 11:09:39;;;;;;;31.77;4.60;;;8.70;99.90;;;;;;10476525;28;20552;-25
2023/01/30 11:14:52;;;;;;;33.78;3.97;;;8.20;99.90;;;;;;10479051;28;20068;-24
2023/01/30 11:19:57;;;;;;;29.40;3.47;;;8.10;99.90;;;;;;10480405;28;20048;-25
2023/01/30 11:25:06;;;;;;;28.55;3.72;;;8.30;99.90;;;;;;10481905;28;20047;-22
2023/01/30 11:30:13;;;;;;;33.83;4.43;;;8.60;99.90;;;;;;10471190;28;20045;-25
2023/01/30 11:35:26;;;;;;;21.02;3.15;;;8.60;99.90;;;;;;10480052;28;20543;-25
2023/01/30 11:40:30;;;;;;;27.10;4.05;;;8.90;99.90;;;;;;10486446;28;20054;-25
2023/01/30 11:45:37;;;;;;;27.45;3.95;;;8.90;99.90;;;;;;10481431;28;20052;-25
2023/01/30 11:50:43;;;;;;;33.25;3.85;;;8.90;99.90;;;;;;10475898;28;20083;-25
2023/01/30 11:55:45;;;;;;;27.23;4.45;;;8.40;99.90;;;;;;10474175;28;20060;-25
2023/01/30 12:00:48;;;;;;;22.73;3.13;;;8.40;99.90;;;;;;10492122;28;20076;-25
2023/01/30 12:05:54;;;;;;;16.63;2.55;;;8.60;99.90;;;;;;10490440;28;20036;-25
2023/01/30 12:11:00;;;;;;;42.00;4.90;;;9.30;99.90;;;;;;10492347;28;20060;-27
2023/01/30 12:16:16;;;;;;;37.55;4.32;;;8.80;99.90;;;;;;10474980;28;20060;-26
2023/01/30 12:21:31;;;;;;;25.35;4.20;;;9.10;99.90;;;;;;10487481;28;20457;-26
2023/01/30 12:26:37;;;;;;;36.05;4.05;;;9.30;99.90;;;;;;10485193;28;20041;-22
2023/01/30 12:31:43;;;;;;;45.70;5.57;;;9.40;99.90;;;;;;10473646;28;20060;-25
2023/01/30 12:36:53;;;;;;;26.48;3.90;;;9.20;99.90;;;;;;10475010;28;20093;-25
2023/01/30 12:42:12;;;;;;;24.45;3.53;;;9.10;99.90;;;;;;10483936;28;20043;-24
2023/01/30 12:47:30;;;;;;;35.92;3.92;;;8.60;99.90;;;;;;10473057;28;20163;-25
2023/01/30 12:52:43;;;;;;;30.33;4.20;;;9.00;99.90;;;;;;10480782;28;20389;-25
2023/01/30 12:57:51;;;;;;;23.20;3.72;;;9.30;99.90;;;;;;10484777;28;20047;-24
2023/01/30 13:03:07;;;;;;;32.05;4.47;;;9.40;99.90;;;;;;10488363;28;20049;-25
2023/01/30 13:08:30;;;;;;;32.08;3.97;;;9.10;99.90;;;;;;10483646;28;20132;-26
2023/01/30 13:13:41;;;;;;;17.90;2.80;;;9.70;99.90;;;;;;10475655;28;20063;-24
2023/01/30 13:18:50;;;;;;;35.40;4.18;;;10.10;99.90;;;;;;10475108;28;20090;-26
2023/01/30 13:24:05;;;;;;;24.17;4.13;;;9.50;99.90;;;;;;10495430;28;20058;-25
2023/01/30 13:29:14;;;;;;;16.55;3.35;;;9.50;99.90;;;;;;10477364;28;20102;-24
2023/01/30 13:34:25;;;;;;;24.48;3.90;;;10.40;99.90;;;;;;10473149;28;20099;-26
2023/01/30 13:39:35;;;;;;;25.30;3.55;;;10.00;99.90;;;;;;10482358;28;20106;-27
2023/01/30 13:44:42;;;;;;;26.05;4.05;;;10.50;99.90;;;;;;10493802;28;20067;-26
2023/01/30 13:49:50;;;;;;;37.20;3.90;;;10.00;99.90;;;;;;10486868;28;20530;-25
2023/01/30 13:55:05;;;;;;;24.08;3.90;;;9.80;99.90;;;;;;10492528;28;20782;-26
2023/01/30 14:00:32;;;;;;;19.52;4.13;;;9.90;99.90;;;;;;10481640;28;20504;-25
2023/01/30 14:06:14;;;;;;;29.65;3.83;;;10.60;99.90;;;;;;10463039;28;20048;-25
2023/01/30 14:11:36;;;;;;;20.38;4.25;;;10.20;99.90;;;;;;10490232;28;20453;-23
2023/01/30 14:16:43;;;;;;;38.22;5.80;;;10.40;99.90;;;;;;10484442;28;20124;-27
2023/01/30 14:21:55;;;;;;;15.63;3.08;;;10.20;99.90;;;;;;10485849;28;20048;-27
2023/01/30 14:27:04;;;;;;;27.20;4.53;;;10.50;99.90;;;;;;10478897;28;20070;-25
2023/01/30 14:32:47;;;;;;;43.15;6.03;;;10.80;99.90;;;;;;10484322;28;20051;-26
2023/01/30 14:37:50;;;;;;;;;;;10.50;99.90;;;;;;10476104;28;20126;-25
2023/01/30 14:43:40;;;;;;;32.03;3.50;;;10.30;99.90;;;;;;10487198;28;19925;-27
2023/01/30 14:48:45;;;;;;;32.38;5.10;;;10.40;99.90;;;;;;10480180;28;20131;-25
2023/01/30 14:53:51;;;;;;;25.50;3.55;;;10.50;99.90;;;;;;10489123;28;20048;-25
2023/01/30 14:59:02;;;;;;;24.75;3.17;;;10.50;99.90;;;;;;10485175;28;20067;-25
2023/01/30 15:04:05;;;;;;;40.97;4.07;;;10.30;99.90;;;;;;10478831;28;20048;-27
2023/01/30 15:09:09;;;;;;;27.95;4.38;;;10.00;99.90;;;;;;10479876;28;20528;-26
2023/01/30 15:14:18;;;;;;;27.40;3.67;;;10.20;99.90;;;;;;10488666;28;20147;-26
2023/01/30 15:19:56;;;;;;;33.67;5.07;;;9.90;99.90;;;;;;10484664;28;20068;-26
2023/01/30 15:25:18;;;;;;;24.13;4.32;;;10.10;99.90;;;;;;10488917;28;20113;-25
2023/01/30 15:30:27;;;;;;;38.40;6.03;;;10.40;99.90;;;;;;10473446;28;20076;-25
2023/01/30 15:35:31;;;;;;;26.70;4.40;;;9.70;99.90;;;;;;10480426;28;20504;-26
2023/01/30 15:40:33;;;;;;;29.17;3.90;;;10.10;99.90;;;;;;10477573;28;20132;-24
2023/01/30 15:45:42;;;;;;;27.63;4.10;;;9.60;99.90;;;;;;10468478;28;20480;-25
2023/01/30 15:50:50;;;;;;;27.95;4.13;;;9.80;99.90;;;;;;10488350;28;20040;-26
2023/01/30 15:55:53;;;;;;;22.38;3.33;;;9.60;99.90;;;;;;10485322;28;20051;-26
2023/01/30 16:00:58;;;;;;;17.95;4.28;;;10.30;99.90;;;;;;10472741;28;20093;-25
2023/01/30 16:06:02;;;;;;;25.00;4.95;;;9.70;99.90;;;;;;10478717;28;20045;-27
2023/01/30 16:11:04;;;;;;;32.60;5.60;;;9.70;99.90;;;;;;10495016;28;20475;-25
2023/01/30 16:16:11;;;;;;;30.87;3.93;;;9.70;99.90;;;;;;10486740;28;20122;-26
2023/01/30 16:21:19;;;;;;;30.50;3.80;;;9.40;99.90;;;;;;10488315;28;20074;-26
2023/01/30 16:26:22;;;;;;;32.53;5.10;;;9.50;99.90;;;;;;10494983;28;20056;-27
2023/01/30 16:31:28;;;;;;;26.27;4.65;;;8.80;99.90;;;;;;10488885;28;20076;-25
2023/01/30 16:36:38;;;;;;;30.90;5.05;;;9.20;99.90;;;;;;10494023;28;20139;-26
2023/01/30 16:41:41;;;;;;;26.13;5.15;;;8.90;99.90;;;;;;10474756;28;20087;-26
2023/01/30 16:46:50;;;;;;;29.20;3.70;;;9.70;99.90;;;;;;10475358;28;20117;-28
2023/01/30 16:52:01;;;;;;;24.70;4.30;;;8.90;99.90;;;;;;10484587;28;20147;-27
2023/01/30 16:57:04;;;;;;;38.92;4.38;;;9.60;99.90;;;;;;10477631;28;20128;-25
2023/01/30 17:02:07;;;;;;;20.30;4.28;;;10.00;99.90;;;;;;10480556;28;20603;-26
2023/01/30 17:07:33;;;;;;;15.95;2.47;;;9.80;99.90;;;;;;10479928;28;20145;-25
2023/01/30 17:12:37;;;;;;;30.58;3.40;;;9.90;99.90;;;;;;10472799;28;20497;-26
2023/01/30 17:17:39;;;;;;;31.33;4.78;;;9.20;99.90;;;;;;10470459;28;20135;-24
2023/01/30 17:22:44;;;;;;;18.30;3.60;;;8.50;99.90;;;;;;10484072;28;20044;-24
2023/01/30 17:27:46;;;;;;;23.63;3.17;;;10.00;99.90;;;;;;10485230;28;20048;-27
2023/01/30 17:32:49;;;;;;;24.67;3.38;;;10.00;99.90;;;;;;10481678;28;20056;-26
2023/01/30 17:37:52;;;;;;;33.47;3.58;;;9.10;99.90;;;;;;10490995;28;20143;-26
2023/01/30 17:42:54;;;;;;;10.90;2.08;;;9.90;99.90;;;;;;10484053;28;20492;-26
2023/01/30 17:47:56;;;;;;;17.88;3.15;;;10.40;99.90;;;;;;10476382;28;20152;-23
2023/01/30 17:52:59;;;;;;;24.35;2.80;;;10.00;99.90;;;;;;10484295;28;20054;-26
2023/01/30 17:58:01;;;;;;;14.85;3.20;;;10.80;99.90;;;;;;10479668;28;20075;-26
2023/01/30 18:03:03;;;;;;;29.67;3.10;;;11.90;99.90;;;;;;10485019;28;20146;-26
2023/01/30 18:08:07;;;;;;;29.30;3.80;;;9.10;99.90;;;;;;10468632;28;20053;-26
2023/01/30 18:13:09;;;;;;;29.70;3.63;;;8.20;99.90;;;;;;10490505;28;20147;-25
2023/01/30 18:18:14;;;;;;;20.45;3.15;;;7.70;99.90;;;;;;10487252;28;20072;-25
2023/01/30 18:23:18;;;;;;;26.98;3.50;;;8.40;99.90;;;;;;10482650;28;20048;-25
2023/01/30 18:28:20;;;;;;;27.45;4.00;;;8.60;99.90;;;;;;10480082;28;20052;-25
2023/01/30 18:33:22;;;;;;;18.05;3.58;;;7.90;99.90;;;;;;10474056;28;20057;-25
2023/01/30 18:38:26;;;;;;;23.83;4.40;;;7.90;99.90;;;;;;10472843;28;20170;-24
2023/01/30 18:43:28;;;;;;;30.00;4.82;;;8.00;99.90;;;;;;10483241;28;20499;-26
2023/01/30 18:48:31;;;;;;;26.30;3.78;;;7.40;99.90;;;;;;10477920;28;20064;-25
2023/01/30 18:53:34;;;;;;;22.45;3.42;;;7.90;99.90;;;;;;10480267;28;20568;-26
2023/01/30 18:58:37;;;;;;;18.30;2.25;;;8.00;99.90;;;;;;10483801;28;20139;-25
2023/01/30 19:03:39;;;;;;;21.70;3.33;;;7.50;99.90;;;;;;10468825;28;20072;-25
2023/01/30 19:08:42;;;;;;;16.77;3.53;;;7.40;99.90;;;;;;10478849;28;20087;-26
2023/01/30 19:13:44;;;;;;;38.75;5.30;;;7.60;99.90;;;;;;10484522;28;20094;-26
2023/01/30 19:18:46;;;;;;;27.55;4.10;;;8.20;99.90;;;;;;10470085;28;20136;-25
2023/01/30 19:23:50;;;;;;;27.80;5.70;;;8.00;99.90;;;;;;10464630;28;20067;-26
2023/01/30 19:28:52;;;;;;;14.10;3.47;;;10.20;99.90;;;;;;10477816;28;20048;-26
2023/01/30 19:33:55;;;;;;;22.93;3.20;;;9.90;99.90;;;;;;10476000;28;20061;-25
2023/01/30 19:39:00;;;;;;;21.30;3.75;;;9.90;99.90;;;;;;10471123;28;20052;-27
2023/01/30 19:44:04;;;;;;;22.17;3.75;;;9.90;99.90;;;;;;10475249;28;20535;-26
2023/01/30 19:49:06;;;;;;;13.32;2.22;;;11.10;99.90;;;;;;10473092;28;20052;-26
2023/01/30 19:54:11;;;;;;;8.57;2.20;;;10.70;99.90;;;;;;10469479;28;20067;-27
2023/01/30 19:59:15;;;;;;;19.83;2.67;;;10.10;99.90;;;;;;10488404;28;20037;-24
2023/01/30 20:04:17;;;;;;;15.25;3.50;;;10.40;99.90;;;;;;10476581;28;20091;-26
2023/01/30 20:09:20;;;;;;;12.10;2.47;;;10.30;99.90;;;;;;10474618;28;20574;-26
2023/01/30 20:14:22;;;;;;;10.48;2.22;;;9.40;99.90;;;;;;10481410;28;20143;-24
2023/01/30 20:19:24;;;;;;;21.83;3.28;;;9.50;99.90;;;;;;10476064;28;20043;-26
2023/01/30 20:24:28;;;;;;;19.03;3.03;;;9.50;99.90;;;;;;10496512;28;20040;-27
2023/01/30 20:29:30;;;;;;;18.52;3.08;;;10.20;99.90;;;;;;10484557;28;20128;-25
2023/01/30 20:34:31;;;;;;;19.60;3.33;;;8.80;99.90;;;;;;10480918;28;20051;-25
2023/01/30 20:39:35;;;;;;;19.35;2.40;;;9.30;99.90;;;;;;10477075;28;20130;-25
2023/01/30 20:44:36;;;;;;;21.77;4.03;;;8.70;99.90;;;;;;10497591;28;20044;-26
2023/01/30 20:49:38;;;;;;;14.75;4.35;;;10.20;99.90;;;;;;10475292;28;20067;-25
2023/01/30 20:54:42;;;;;;;33.17;3.65;;;11.10;99.90;;;;;;10472508;28;20056;-25
2023/01/30 20:59:45;;;;;;;12.77;4.13;;;11.30;99.90;;;;;;10473786;28;20076;-25
2023/01/30 21:04:47;;;;;;;16.60;5.22;;;11.20;99.90;;;;;;10476120;28;20136;-25
2023/01/30 21:09:50;;;;;;;27.67;4.10;;;11.40;99.90;;;;;;10486105;28;20120;-26
2023/01/30 21:14:52;;;;;;;22.35;4.07;;;11.30;99.90;;;;;;10487061;28;20104;-25
2023/01/30 21:19:54;;;;;;;19.80;5.70;;;10.30;99.90;;;;;;10488508;28;20045;-26
2023/01/30 21:24:57;;;;;;;19.55;5.22;;;11.00;99.90;;;;;;10483984;28;20061;-25
2023/01/30 21:29:59;;;;;;;15.52;4.15;;;10.00;99.90;;;;;;10479797;28;20083;-25
2023/01/30 21:35:01;;;;;;;23.75;3.92;;;10.50;99.90;;;;;;10473972;28;20155;-25
2023/01/30 21:45:36;;;;;;;12.57;2.53;;;9.90;99.90;;;;;;10421601;28;20350;-26
2023/01/30 21:50:37;;;;;;;10.43;4.43;;;11.50;99.20;;;;;;10482026;28;20131;-25
2023/01/30 21:55:41;;;;;;;30.05;4.60;;;12.10;99.90;;;;;;10494170;28;20155;-25
2023/01/30 22:00:42;;;;;;;23.55;5.00;;;10.30;99.90;;;;;;10474883;28;20076;-25
2023/01/30 22:05:44;;;;;;;19.77;4.82;;;9.60;99.90;;;;;;10480061;28;20596;-25
2023/01/30 22:10:48;;;;;;;17.75;5.00;;;9.70;99.90;;;;;;10484528;28;20048;-25
2023/01/30 22:15:49;;;;;;;13.77;4.93;;;11.20;99.90;;;;;;10476311;28;20060;-25
2023/01/30 22:20:51;;;;;;;17.35;5.07;;;10.00;99.90;;;;;;10472172;28;20139;-25
2023/01/30 22:25:55;;;;;;;16.73;6.13;;;13.00;99.90;;;;;;10474450;28;20055;-25
2023/01/30 22:31:01;;;;;;;14.30;4.78;;;12.20;99.90;;;;;;10473409;28;20128;-24
2023/01/30 22:36:06;;;;;;;19.35;6.45;;;11.60;99.90;;;;;;10474658;28;20080;-24
2023/01/30 22:41:13;;;;;;;14.25;5.95;;;12.40;99.90;;;;;;10479023;28;20048;-25
2023/01/30 22:46:16;;;;;;;16.48;7.28;;;13.00;99.90;;;;;;10447300;28;20052;-25
2023/01/30 22:51:20;;;;;;;16.67;6.30;;;13.00;99.90;;;;;;10475936;28;20127;-24
2023/01/30 22:56:24;;;;;;;17.20;4.68;;;12.60;99.90;;;;;;10487155;28;20060;-24
2023/01/30 23:01:28;;;;;;;15.77;3.72;;;12.40;99.90;;;;;;10472137;28;20759;-24
2023/01/30 23:06:31;;;;;;;13.85;6.65;;;13.30;99.90;;;;;;10468588;28;20040;-24
2023/01/30 23:11:36;;;;;;;11.30;5.70;;;13.70;99.90;;;;;;10470176;28;20413;-25
2023/01/30 23:16:40;;;;;;;13.77;5.93;;;14.10;98.80;;;;;;10473889;28;20131;-24
2023/01/30 23:21:43;;;;;;;11.35;4.57;;;14.70;95.90;;;;;;10489421;28;20125;-25
2023/01/30 23:26:50;;;;;;;10.68;5.25;;;14.70;93.60;;;;;;10477101;28;20132;-24
2023/01/30 23:31:52;;;;;;;15.90;5.82;;;13.10;99.90;;;;;;10478655;28;20448;-25
2023/01/30 23:36:54;;;;;;;15.70;3.75;;;13.10;95.80;;;;;;10485563;28;20121;-25
2023/01/30 23:41:57;;;;;;;8.38;3.28;;;12.90;96.30;;;;;;10493513;28;20044;-25
2023/01/30 23:46:59;;;;;;;12.13;4.90;;;12.70;99.90;;;;;;10481407;28;20055;-24
2023/01/30 23:52:01;;;;;;;9.90;5.28;;;12.90;99.90;;;;;;10494255;28;20635;-28
2023/01/30 23:57:04;;;;;;;13.05;4.70;;;12.30;99.90;;;;;;10492298;28;20067;-23
